Time;durP1;ratioP1;P1;durP2;ratioP2;P2;SDS_P1;SDS_P2;PMS_P1;PMS_P2;Temp;Humidity;BMP_temperature;BMP_pressure;BME280_temperature;BME280_humidity;BME280_pressure;Samples;Min_cycle;Max_cycle;Signal;HPM_P1;HPM_P2
2021/01/20 04:14:29;;;;;;;1.65;1.50;;;-6.80;99.90;;;;;;4959126;28;20112;-69
2021/01/20 04:16:55;;;;;;;4.07;1.77;;;-6.90;99.90;;;;;;4962700;28;20492;-69
2021/01/20 04:19:20;;;;;;;1.80;1.70;;;-6.90;99.90;;;;;;4970858;28;20027;-69
2021/01/20 04:21:49;;;;;;;2.25;1.38;;;-7.00;99.90;;;;;;4953315;28;20059;-69
2021/01/20 04:24:15;;;;;;;1.67;1.20;;;-7.00;99.90;;;;;;4968219;28;20096;-69
2021/01/20 04:26:42;;;;;;;2.30;1.70;;;-7.00;99.90;;;;;;4974977;28;20113;-69
2021/01/20 04:29:08;;;;;;;3.55;1.65;;;-7.00;99.90;;;;;;4976167;28;20038;-71
2021/01/20 04:31:33;;;;;;;3.72;1.48;;;-7.10;99.90;;;;;;4974918;28;20057;-71
2021/01/20 04:33:59;;;;;;;1.65;1.50;;;-7.00;99.90;;;;;;4975837;28;20039;-71
2021/01/20 04:36:25;;;;;;;2.60;1.45;;;-7.00;99.90;;;;;;4962460;28;20027;-71
2021/01/20 04:38:51;;;;;;;1.67;1.58;;;-7.00;99.90;;;;;;4962324;28;20386;-71
2021/01/20 04:41:17;;;;;;;2.05;1.48;;;-7.00;99.90;;;;;;4976111;28;20023;-70
2021/01/20 04:43:43;;;;;;;2.13;1.40;;;-7.00;99.90;;;;;;4973383;28;20027;-70
2021/01/20 04:46:11;;;;;;;2.05;1.48;;;-7.00;99.90;;;;;;4964726;28;20054;-71
2021/01/20 04:48:37;;;;;;;2.00;1.70;;;-7.00;99.90;;;;;;4975936;28;20023;-70
2021/01/20 04:51:04;;;;;;;2.83;1.55;;;-7.00;99.90;;;;;;4975791;28;20070;-70
2021/01/20 04:53:33;;;;;;;1.65;1.55;;;-7.00;99.90;;;;;;4975720;28;20054;-70
2021/01/20 04:56:11;;;;;;;3.40;1.80;;;-7.00;99.90;;;;;;4975583;28;20562;-71
2021/01/20 04:58:37;;;;;;;4.32;2.03;;;-7.00;99.90;;;;;;4975881;28;20031;-71
2021/01/20 05:01:03;;;;;;;3.58;1.80;;;-7.00;99.90;;;;;;4975317;28;20114;-70
2021/01/20 05:03:29;;;;;;;2.55;2.08;;;-7.00;99.90;;;;;;4975509;28;20034;-70
2021/01/20 05:05:56;;;;;;;4.93;1.75;;;-7.00;99.90;;;;;;4975153;28;20031;-70
2021/01/20 05:08:22;;;;;;;4.00;1.80;;;-7.00;99.90;;;;;;4975351;28;20030;-71
2021/01/20 05:10:51;;;;;;;1.52;1.42;;;-7.00;99.90;;;;;;4961760;28;20131;-70
2021/01/20 05:13:30;;;;;;;2.33;1.80;;;-7.00;99.90;;;;;;4975150;28;20019;-70
2021/01/20 05:15:57;;;;;;;2.22;1.73;;;-7.00;99.90;;;;;;4958566;28;20165;-70
2021/01/20 05:18:23;;;;;;;1.92;1.65;;;-7.00;99.90;;;;;;4963320;28;20025;-71
2021/01/20 05:20:49;;;;;;;5.95;1.85;;;-7.00;99.90;;;;;;4975223;28;20114;-71
2021/01/20 05:23:15;;;;;;;1.63;1.42;;;-7.00;99.90;;;;;;4975003;28;20061;-72
2021/01/20 05:25:43;;;;;;;1.50;1.40;;;-7.00;99.90;;;;;;4975001;28;20039;-72
2021/01/20 05:28:22;;;;;;;3.25;1.88;;;-7.00;99.90;;;;;;4974839;28;20027;-72
2021/01/20 05:30:56;;;;;;;2.22;1.77;;;-7.00;99.90;;;;;;4975300;28;20050;-71
2021/01/20 05:33:23;;;;;;;4.68;1.73;;;-6.90;99.90;;;;;;4974945;28;20442;-74
2021/01/20 05:36:08;;;;;;;3.15;1.75;;;-6.90;99.90;;;;;;4973851;28;20475;-74
2021/01/20 05:38:45;;;;;;;2.05;1.65;;;-6.90;99.90;;;;;;4959015;28;20031;-72
2021/01/20 05:41:31;;;;;;;2.88;1.75;;;-7.00;99.90;;;;;;4955494;28;20027;-73
2021/01/20 05:44:08;;;;;;;1.67;1.42;;;-6.50;99.90;;;;;;4955385;29;20037;-71
2021/01/20 05:46:41;;;;;;;2.17;1.63;;;-6.40;99.90;;;;;;4955354;28;20027;-71
2021/01/20 05:49:23;;;;;;;2.15;1.88;;;-6.50;99.90;;;;;;4955702;29;20026;-71
2021/01/20 05:51:49;;;;;;;1.65;1.55;;;-6.70;99.90;;;;;;4955324;28;20051;-71
2021/01/20 05:54:32;;;;;;;2.95;1.58;;;-6.80;99.90;;;;;;4954813;29;20058;-72
2021/01/20 05:57:19;;;;;;;6.07;3.53;;;-6.80;99.90;;;;;;4954276;28;20466;-71
2021/01/20 05:59:46;;;;;;;4.43;1.75;;;-6.80;99.90;;;;;;4953162;29;20023;-78
2021/01/20 06:02:14;;;;;;;3.65;1.60;;;-6.80;99.90;;;;;;4955901;28;20055;-77
2021/01/20 06:04:39;;;;;;;2.90;1.92;;;-6.90;99.90;;;;;;4954085;28;20491;-77
2021/01/20 06:07:08;;;;;;;2.58;2.05;;;-6.80;99.90;;;;;;4948640;29;20039;-78
2021/01/20 06:09:35;;;;;;;2.08;1.55;;;-6.80;99.90;;;;;;4959214;28;20027;-78
2021/01/20 06:12:06;;;;;;;2.45;1.80;;;-6.90;99.90;;;;;;4956465;28;20039;-78
2021/01/20 06:14:32;;;;;;;5.15;2.45;;;-6.90;99.90;;;;;;4954485;29;20050;-76
2021/01/20 06:17:34;;;;;;;2.38;1.92;;;-6.90;99.90;;;;;;4954472;28;20118;-71
2021/01/20 06:20:06;;;;;;;3.72;3.00;;;-6.90;99.90;;;;;;4930281;28;20444;-75
2021/01/20 06:22:33;;;;;;;3.75;2.00;;;-6.90;99.90;;;;;;4953614;28;20503;-74
2021/01/20 06:25:03;;;;;;;6.72;2.85;;;-6.70;99.90;;;;;;4953681;29;20035;-71
2021/01/20 06:27:47;;;;;;;3.00;2.22;;;-6.50;99.90;;;;;;4961486;28;20503;-71
2021/01/20 06:30:22;;;;;;;3.03;2.00;;;-6.60;99.90;;;;;;4955277;28;20045;-71
2021/01/20 06:32:49;;;;;;;7.30;3.75;;;-6.70;99.90;;;;;;4957639;28;20472;-71
2021/01/20 06:35:15;;;;;;;3.05;2.28;;;-6.70;99.90;;;;;;4961565;28;20027;-71
2021/01/20 06:37:44;;;;;;;2.63;1.98;;;-6.70;99.90;;;;;;4954638;28;20102;-71
2021/01/20 06:40:22;;;;;;;2.25;2.05;;;-6.70;99.90;;;;;;4968864;28;20038;-71
2021/01/20 06:42:49;;;;;;;2.88;2.08;;;-6.80;99.90;;;;;;4973590;28;20031;-73
2021/01/20 06:45:25;;;;;;;3.30;2.17;;;-6.00;99.90;;;;;;4973364;28;20034;-73
2021/01/20 06:48:00;;;;;;;2.40;2.08;;;-4.90;99.90;;;;;;4971732;28;20106;-73
2021/01/20 06:50:35;;;;;;;2.22;1.90;;;-5.00;99.90;;;;;;4951958;28;20020;-73
2021/01/20 06:53:03;;;;;;;5.43;2.00;;;-5.50;99.90;;;;;;4953016;28;20074;-73
2021/01/20 06:55:38;;;;;;;4.65;2.38;;;-5.80;99.90;;;;;;4953772;29;20382;-72
2021/01/20 06:58:20;;;;;;;3.35;1.80;;;-6.00;99.90;;;;;;4953573;28;20015;-72
2021/01/20 07:01:13;;;;;;;3.75;2.20;;;-6.10;99.90;;;;;;4953825;29;20386;-73
2021/01/20 07:03:43;;;;;;;4.30;1.92;;;-6.20;99.90;;;;;;4948433;28;20703;-72
2021/01/20 07:06:40;;;;;;;5.05;2.30;;;-6.30;99.90;;;;;;4953288;29;20036;-72
2021/01/20 07:09:14;;;;;;;3.97;2.30;;;-6.20;99.90;;;;;;4953301;28;20163;-72
2021/01/20 07:12:00;;;;;;;4.80;2.30;;;-6.30;99.90;;;;;;4958744;28;20061;-73
2021/01/20 07:14:29;;;;;;;2.55;2.00;;;-6.30;99.90;;;;;;4958194;28;20058;-75
2021/01/20 07:16:56;;;;;;;4.72;2.13;;;-6.40;99.90;;;;;;4953365;28;20039;-79
2021/01/20 07:19:23;;;;;;;12.32;5.22;;;-6.40;99.90;;;;;;4954777;28;20066;-82
2021/01/20 07:21:48;;;;;;;456.63;92.18;;;-6.40;99.90;;;;;;4956170;28;20027;-79
2021/01/20 07:24:15;;;;;;;62.60;12.70;;;-6.40;99.90;;;;;;4953346;28;20041;-75
2021/01/20 07:26:41;;;;;;;82.13;13.23;;;-6.40;99.90;;;;;;4948430;29;20038;-75
2021/01/20 07:29:21;;;;;;;273.10;42.47;;;-6.40;99.90;;;;;;4953235;29;20070;-80
2021/01/20 07:31:48;;;;;;;;;;;-6.40;99.90;;;;;;4949160;29;20054;-79
2021/01/20 07:34:13;;;;;;;28.20;5.65;;;-6.30;99.90;;;;;;4953284;28;19911;-78
2021/01/20 07:36:39;;;;;;;76.78;31.35;;;-5.50;99.90;;;;;;4953337;29;20022;-79
2021/01/20 07:39:25;;;;;;;29.38;14.68;;;-4.20;99.90;;;;;;4958074;28;20031;-78
2021/01/20 07:41:57;;;;;;;9.20;6.05;;;-3.80;99.90;;;;;;4972797;28;20565;-80
2021/01/20 07:44:24;;;;;;;3.47;2.55;;;-3.80;99.90;;;;;;4972913;28;20070;-75
2021/01/20 07:47:04;;;;;;;2.83;2.10;;;-4.20;99.90;;;;;;4972648;28;20031;-76
2021/01/20 07:49:30;;;;;;;6.90;2.38;;;-4.90;99.90;;;;;;4961369;28;20114;-74
2021/01/20 07:52:06;;;;;;;4.18;2.03;;;-5.30;99.90;;;;;;4972534;28;20030;-75
2021/01/20 07:54:39;;;;;;;6.43;2.08;;;-5.50;99.90;;;;;;4972805;28;20386;-74
2021/01/20 07:57:14;;;;;;;5.80;3.00;;;-5.60;99.90;;;;;;4972554;28;20117;-74
2021/01/20 07:59:39;;;;;;;5.45;2.88;;;-5.60;99.90;;;;;;4975332;28;20047;-75
2021/01/20 08:02:14;;;;;;;6.35;2.40;;;-5.60;99.90;;;;;;4976613;28;20166;-78
2021/01/20 08:04:41;;;;;;;4.35;2.30;;;-5.60;99.90;;;;;;4957005;29;20530;-80
2021/01/20 08:07:07;;;;;;;2.90;1.77;;;-5.60;99.90;;;;;;4956725;28;20027;-77
2021/01/20 08:09:44;;;;;;;2.45;2.15;;;-5.70;99.90;;;;;;4969024;28;20027;-74
2021/01/20 08:12:21;;;;;;;5.38;2.22;;;-5.80;99.90;;;;;;4964234;28;20498;-74
2021/01/20 08:14:47;;;;;;;2.25;1.80;;;-6.00;99.90;;;;;;4955635;29;20054;-74
2021/01/20 08:17:13;;;;;;;3.47;1.95;;;-6.00;99.90;;;;;;4956895;28;20016;-74
2021/01/20 08:19:40;;;;;;;5.07;1.92;;;-6.10;99.90;;;;;;4957008;29;20030;-74
2021/01/20 08:22:12;;;;;;;4.05;2.28;;;-6.20;99.90;;;;;;4956603;28;20024;-74
2021/01/20 08:24:43;;;;;;;4.55;1.90;;;-6.30;99.90;;;;;;4957384;28;20130;-74
2021/01/20 08:27:10;;;;;;;3.80;2.20;;;-6.40;99.90;;;;;;4972178;28;20036;-74
2021/01/20 08:29:48;;;;;;;2.50;1.98;;;-6.50;99.90;;;;;;4956877;29;20038;-74
2021/01/20 08:32:14;;;;;;;3.80;1.80;;;-6.60;99.90;;;;;;4956790;29;20031;-74
2021/01/20 08:34:41;;;;;;;5.68;2.20;;;-6.60;99.90;;;;;;4956987;28;20038;-74
2021/01/20 08:37:20;;;;;;;3.28;2.30;;;-6.50;99.90;;;;;;4956418;29;20024;-74
2021/01/20 08:39:53;;;;;;;2.97;2.17;;;-6.50;99.90;;;;;;4968560;28;20491;-79
2021/01/20 08:42:29;;;;;;;4.00;2.38;;;-6.40;99.90;;;;;;4975908;28;20019;-79
2021/01/20 08:45:14;;;;;;;3.90;2.40;;;-6.40;99.90;;;;;;4974765;28;20047;-79
2021/01/20 08:47:44;;;;;;;3.83;2.30;;;-6.40;99.90;;;;;;4963343;28;20391;-79
2021/01/20 08:50:11;;;;;;;;;;;-6.40;99.90;;;;;;4976813;28;20090;-79
2021/01/20 08:52:42;;;;;;;2.40;1.88;;;-6.40;99.90;;;;;;4975615;28;20331;-80
2021/01/20 08:55:10;;;;;;;2.67;2.17;;;-6.50;99.90;;;;;;4974217;28;20474;-81
2021/01/20 08:57:36;;;;;;;3.95;2.08;;;-6.50;99.90;;;;;;4967905;28;20459;-77
2021/01/20 09:00:03;;;;;;;3.08;2.17;;;-6.50;99.90;;;;;;4955752;29;20034;-76
2021/01/20 09:02:29;;;;;;;4.20;2.38;;;-6.40;99.90;;;;;;4955364;29;20031;-77
2021/01/20 09:04:54;;;;;;;3.75;2.25;;;-6.50;99.90;;;;;;4955557;29;20061;-77
2021/01/20 09:07:20;;;;;;;4.43;1.90;;;-6.50;99.90;;;;;;4954420;29;20391;-77
2021/01/20 09:09:46;;;;;;;3.28;2.10;;;-6.50;99.90;;;;;;4954531;28;20102;-80
2021/01/20 09:12:11;;;;;;;3.45;2.33;;;-6.30;99.90;;;;;;4956217;29;20042;-73
2021/01/20 09:14:41;;;;;;;2.63;1.95;;;-6.20;99.90;;;;;;4960652;28;20054;-70
2021/01/20 09:17:07;;;;;;;6.53;3.33;;;-6.30;99.90;;;;;;4961879;28;20118;-74
2021/01/20 09:19:33;;;;;;;2.97;2.00;;;-6.30;99.90;;;;;;4957433;28;20491;-74
2021/01/20 09:21:59;;;;;;;4.35;2.22;;;-6.40;99.90;;;;;;4955634;28;20031;-75
2021/01/20 09:24:24;;;;;;;3.55;2.35;;;-6.10;99.90;;;;;;4954207;29;20027;-74
2021/01/20 09:26:50;;;;;;;3.88;2.22;;;-6.10;99.90;;;;;;4955558;29;20043;-75
2021/01/20 09:29:16;;;;;;;2.40;1.92;;;-6.20;99.90;;;;;;4955294;28;20501;-76
2021/01/20 09:31:42;;;;;;;3.22;2.10;;;-6.40;99.90;;;;;;4955759;28;20016;-78
2021/01/20 09:34:08;;;;;;;4.63;1.92;;;-6.40;99.90;;;;;;4955464;28;20415;-76
2021/01/20 09:36:35;;;;;;;3.67;2.00;;;-6.60;99.90;;;;;;4955527;29;20023;-78
2021/01/20 09:39:01;;;;;;;2.30;1.85;;;-6.60;99.90;;;;;;4960942;28;20461;-77
2021/01/20 09:41:28;;;;;;;2.15;1.80;;;-6.60;99.90;;;;;;4974800;28;20042;-77
2021/01/20 09:43:54;;;;;;;2.95;2.10;;;-6.60;99.90;;;;;;4973391;28;20026;-77
2021/01/20 09:46:20;;;;;;;4.63;2.03;;;-6.60;99.90;;;;;;4975131;28;20030;-78
2021/01/20 09:48:46;;;;;;;3.67;2.28;;;-6.60;99.90;;;;;;4974725;28;20031;-81
2021/01/20 09:51:13;;;;;;;5.53;2.00;;;-6.70;99.90;;;;;;4974836;28;20065;-83
2021/01/20 09:53:39;;;;;;;2.53;2.03;;;-6.70;99.90;;;;;;4974880;28;20033;-83
2021/01/20 09:56:05;;;;;;;2.88;2.30;;;-6.80;99.90;;;;;;4977531;28;20022;-82
2021/01/20 09:58:31;;;;;;;2.08;1.73;;;-7.00;99.90;;;;;;4974899;28;20038;-83
2021/01/20 10:00:58;;;;;;;3.05;2.50;;;-6.50;99.90;;;;;;4954917;28;20027;-85
2021/01/20 10:03:23;;;;;;;6.22;2.13;;;-4.80;99.90;;;;;;4963584;28;20027;-85
2021/01/20 10:05:50;;;;;;;4.22;2.13;;;-5.20;99.90;;;;;;4958423;28;20467;-85
2021/01/20 10:08:16;;;;;;;4.13;1.90;;;-5.70;99.90;;;;;;4957014;29;20444;-87
2021/01/20 10:10:41;;;;;;;2.88;2.38;;;-6.10;99.90;;;;;;4962106;28;20054;-78
2021/01/20 10:13:07;;;;;;;4.93;2.10;;;-6.40;99.90;;;;;;4966618;29;20030;-78
2021/01/20 10:15:38;;;;;;;2.95;1.88;;;-6.50;99.90;;;;;;4951251;29;20047;-78
2021/01/20 10:18:04;;;;;;;4.68;2.55;;;-6.70;99.90;;;;;;4953883;28;20154;-80
2021/01/20 10:20:29;;;;;;;2.88;2.35;;;-6.70;99.90;;;;;;4953338;28;20125;-79
2021/01/20 10:22:55;;;;;;;3.20;2.03;;;-6.80;99.90;;;;;;4953388;29;20027;-79
2021/01/20 10:25:29;;;;;;;5.30;2.00;;;-6.70;99.90;;;;;;4954315;29;20035;-77
2021/01/20 10:27:59;;;;;;;7.57;2.30;;;-6.70;99.90;;;;;;4953740;28;20383;-75
2021/01/20 10:30:28;;;;;;;3.70;2.30;;;-6.70;99.90;;;;;;4950850;29;20020;-75
2021/01/20 10:32:54;;;;;;;3.72;2.40;;;-6.70;99.90;;;;;;4953868;29;20458;-75
2021/01/20 10:35:20;;;;;;;5.50;2.88;;;-6.70;99.90;;;;;;4953333;29;20114;-75
2021/01/20 10:37:47;;;;;;;2.08;1.75;;;-6.70;99.90;;;;;;4953622;29;20028;-75
2021/01/20 10:40:13;;;;;;;2.53;2.00;;;-6.70;99.90;;;;;;4953675;29;20024;-81
2021/01/20 10:42:39;;;;;;;4.32;1.90;;;-6.70;99.90;;;;;;4953913;28;20027;-75
2021/01/20 10:45:05;;;;;;;3.20;2.22;;;-6.70;99.90;;;;;;4954248;29;20039;-72
2021/01/20 10:47:31;;;;;;;4.82;2.63;;;-6.70;99.90;;;;;;4953966;28;20512;-73
2021/01/20 10:49:58;;;;;;;5.25;2.70;;;-6.70;99.90;;;;;;4954129;29;20035;-73
2021/01/20 10:52:24;;;;;;;4.32;2.17;;;-6.60;99.90;;;;;;4953862;29;20098;-75
2021/01/20 10:54:50;;;;;;;4.90;2.20;;;-6.60;99.90;;;;;;4954063;28;20110;-71
2021/01/20 10:57:15;;;;;;;3.78;2.25;;;-6.70;99.90;;;;;;4953884;28;20031;-71
2021/01/20 10:59:41;;;;;;;5.45;2.42;;;-6.60;99.90;;;;;;4957021;28;20386;-74
2021/01/20 11:02:10;;;;;;;5.70;2.38;;;-6.60;99.90;;;;;;4957470;28;20368;-74
2021/01/20 11:04:37;;;;;;;5.35;2.53;;;-6.60;99.90;;;;;;4955992;28;20118;-74
2021/01/20 11:07:03;;;;;;;4.45;2.40;;;-6.60;99.90;;;;;;4953919;29;20034;-73
2021/01/20 11:09:30;;;;;;;4.38;2.28;;;-6.60;99.90;;;;;;4952196;28;20027;-74
2021/01/20 11:11:57;;;;;;;4.28;2.75;;;-6.50;99.90;;;;;;4953920;29;20058;-74
2021/01/20 11:14:24;;;;;;;3.03;2.22;;;-6.50;99.90;;;;;;4967987;28;20051;-73
2021/01/20 11:16:58;;;;;;;5.22;2.53;;;-6.40;99.90;;;;;;4953855;29;20024;-74
2021/01/20 11:19:24;;;;;;;3.83;2.47;;;-6.30;99.90;;;;;;4947248;28;20523;-73
2021/01/20 11:21:51;;;;;;;4.57;2.63;;;-6.30;99.90;;;;;;4953365;29;20035;-74
2021/01/20 11:24:21;;;;;;;4.50;2.28;;;-6.40;99.90;;;;;;4953316;29;20479;-74
2021/01/20 11:26:48;;;;;;;5.88;2.63;;;-6.30;99.90;;;;;;4953697;29;20031;-74
2021/01/20 11:29:14;;;;;;;6.10;2.60;;;-6.30;99.90;;;;;;4953021;29;20471;-74
2021/01/20 11:31:40;;;;;;;6.13;2.67;;;-6.40;99.90;;;;;;4956997;28;20065;-73
2021/01/20 11:34:06;;;;;;;6.03;2.72;;;-6.30;99.90;;;;;;4955553;28;20601;-73
2021/01/20 11:36:32;;;;;;;6.10;2.53;;;-6.20;99.90;;;;;;4953402;29;20015;-74
2021/01/20 11:38:58;;;;;;;3.88;2.70;;;-6.20;99.90;;;;;;4957256;28;20023;-74
2021/01/20 11:41:24;;;;;;;3.95;2.58;;;-6.20;99.90;;;;;;4972551;28;20571;-74
2021/01/20 11:43:51;;;;;;;9.02;3.08;;;-6.20;99.90;;;;;;4970875;28;20077;-74
2021/01/20 11:46:20;;;;;;;3.08;2.45;;;-6.30;99.90;;;;;;4962594;28;20023;-73
2021/01/20 11:48:47;;;;;;;3.58;2.30;;;-6.30;99.90;;;;;;4953930;28;20487;-71
2021/01/20 11:51:14;;;;;;;3.40;2.35;;;-6.20;99.90;;;;;;4952652;29;20089;-72
2021/01/20 11:53:39;;;;;;;6.47;3.03;;;-3.30;99.90;;;;;;4952781;28;20027;-74
2021/01/20 11:56:05;;;;;;;4.03;2.38;;;-3.60;99.90;;;;;;4953429;29;20019;-74
2021/01/20 11:58:31;;;;;;;5.25;2.20;;;-4.30;99.90;;;;;;4952854;28;20499;-73
2021/01/20 12:00:57;;;;;;;3.90;2.38;;;-4.90;99.90;;;;;;4966188;28;20019;-74
2021/01/20 12:03:23;;;;;;;2.67;2.25;;;-5.10;99.90;;;;;;4953216;29;20034;-74
2021/01/20 12:05:53;;;;;;;6.38;2.60;;;-5.30;99.90;;;;;;4952855;29;20114;-74
2021/01/20 12:08:19;;;;;;;4.55;2.63;;;-5.40;99.90;;;;;;4951684;29;20047;-74
2021/01/20 12:10:45;;;;;;;3.85;2.28;;;-5.50;99.90;;;;;;4953053;29;20023;-74
2021/01/20 12:13:11;;;;;;;2.88;2.03;;;-5.60;99.90;;;;;;4953336;28;20030;-74
2021/01/20 12:15:37;;;;;;;4.78;2.40;;;-5.60;99.90;;;;;;4952986;28;20043;-74
2021/01/20 12:18:05;;;;;;;5.25;2.38;;;-5.70;99.90;;;;;;4952926;28;20420;-74
2021/01/20 12:20:31;;;;;;;6.25;3.00;;;-5.90;99.90;;;;;;4952989;29;20114;-74
2021/01/20 12:22:57;;;;;;;6.68;2.72;;;-5.90;99.90;;;;;;4952847;29;20468;-74
2021/01/20 12:25:23;;;;;;;3.55;2.50;;;-6.00;99.90;;;;;;4952856;29;20031;-74
2021/01/20 12:27:49;;;;;;;7.53;2.80;;;-5.90;99.90;;;;;;4953145;29;20506;-74
2021/01/20 12:30:15;;;;;;;4.45;2.40;;;-5.90;99.90;;;;;;4959410;28;20038;-75
2021/01/20 12:32:41;;;;;;;6.22;2.50;;;-4.70;99.90;;;;;;4959234;28;20102;-78
2021/01/20 12:35:07;;;;;;;5.95;2.40;;;-4.00;99.90;;;;;;4952729;28;20452;-77
2021/01/20 12:37:32;;;;;;;7.70;2.35;;;-4.40;99.90;;;;;;4953023;29;20050;-78
2021/01/20 12:39:58;;;;;;;4.45;2.70;;;-4.80;99.90;;;;;;4966161;28;20479;-77
2021/01/20 12:42:24;;;;;;;2.97;1.95;;;-5.10;99.90;;;;;;4958290;28;20031;-77
2021/01/20 12:44:49;;;;;;;6.43;1.98;;;-4.50;99.90;;;;;;4973208;28;20031;-78
2021/01/20 12:47:16;;;;;;;3.08;2.03;;;-4.20;99.90;;;;;;4975782;28;20015;-78
2021/01/20 12:49:42;;;;;;;6.18;2.22;;;-4.70;99.90;;;;;;4975720;28;20395;-78
2021/01/20 12:52:08;;;;;;;4.03;2.17;;;-5.10;99.90;;;;;;4975521;28;20026;-78
2021/01/20 12:54:34;;;;;;;1.10;1.05;;;-5.30;99.90;;;;;;4968005;28;20034;-68
2021/01/20 12:56:59;;;;;;;4.68;2.30;;;-4.80;99.90;;;;;;4970066;28;20054;-77
2021/01/20 12:59:25;;;;;;;4.07;2.20;;;-0.30;99.90;;;;;;4975478;28;20027;-76
2021/01/20 13:01:51;;;;;;;2.63;1.98;;;-0.70;99.90;;;;;;4964302;28;20034;-81
2021/01/20 13:04:16;;;;;;;3.03;2.00;;;-1.70;99.90;;;;;;4954402;29;20031;-79
2021/01/20 13:06:49;;;;;;;2.78;2.05;;;-2.50;99.90;;;;;;4955640;29;20038;-77
2021/01/20 13:09:15;;;;;;;4.82;2.10;;;-3.30;98.20;;;;;;4956056;29;20512;-74
2021/01/20 13:11:43;;;;;;;4.72;1.95;;;-3.90;98.70;;;;;;4956637;29;20035;-75
2021/01/20 13:14:09;;;;;;;6.22;2.00;;;-4.30;97.90;;;;;;4955278;28;20474;-71
2021/01/20 13:16:35;;;;;;;4.45;2.22;;;-4.60;99.80;;;;;;4955315;29;20031;-73
2021/01/20 13:19:00;;;;;;;6.95;2.25;;;-4.80;99.90;;;;;;4955390;29;20082;-74
2021/01/20 13:21:26;;;;;;;6.97;2.55;;;-4.90;99.10;;;;;;4954894;29;20042;-72
2021/01/20 13:23:52;;;;;;;3.50;2.17;;;-5.10;99.90;;;;;;4955080;29;20035;-72
2021/01/20 13:26:17;;;;;;;2.83;2.08;;;-5.20;99.90;;;;;;4953795;29;20055;-73
2021/01/20 13:28:43;;;;;;;5.07;2.42;;;-5.30;99.90;;;;;;4952347;28;20023;-74
2021/01/20 13:31:09;;;;;;;3.88;2.30;;;-5.50;99.90;;;;;;4955029;29;20106;-74
2021/01/20 13:33:35;;;;;;;3.88;2.70;;;-5.50;99.90;;;;;;4954789;28;20070;-77
2021/01/20 13:36:00;;;;;;;2.58;1.98;;;-5.50;99.90;;;;;;4955544;28;20034;-73
2021/01/20 13:38:26;;;;;;;5.22;2.45;;;-5.50;99.90;;;;;;4956375;28;20035;-73
2021/01/20 13:40:52;;;;;;;5.55;2.58;;;-5.50;99.90;;;;;;4974900;28;20439;-72
2021/01/20 13:43:17;;;;;;;5.90;2.47;;;-5.60;99.90;;;;;;4972952;28;20031;-74
2021/01/20 13:45:43;;;;;;;5.32;2.75;;;-5.60;99.90;;;;;;4954872;29;20035;-75
2021/01/20 13:48:09;;;;;;;3.33;2.30;;;-5.60;99.90;;;;;;4951848;29;20065;-75
2021/01/20 13:50:35;;;;;;;54.08;19.65;;;-5.60;99.90;;;;;;4954378;29;20031;-77
2021/01/20 13:53:00;;;;;;;17.77;7.85;;;-5.60;99.90;;;;;;4954774;28;20030;-76
2021/01/20 13:55:26;;;;;;;8.43;4.63;;;-5.70;99.90;;;;;;4954891;28;20051;-79
2021/01/20 13:57:52;;;;;;;25.15;12.77;;;-5.70;99.90;;;;;;4952348;28;20460;-79
2021/01/20 14:00:18;;;;;;;13.52;5.75;;;-5.70;99.90;;;;;;4951907;28;20509;-81
2021/01/20 14:02:44;;;;;;;10.75;7.28;;;-5.70;99.90;;;;;;4954984;28;20025;-77
2021/01/20 14:05:10;;;;;;;7.88;7.07;;;-5.70;99.90;;;;;;4953342;29;20035;-77
2021/01/20 14:07:36;;;;;;;7.75;4.32;;;-5.70;99.90;;;;;;4954878;29;20106;-76
2021/01/20 14:10:02;;;;;;;4.43;2.88;;;-5.70;99.90;;;;;;4956863;28;20491;-78
2021/01/20 14:12:28;;;;;;;5.88;3.20;;;-5.80;99.90;;;;;;4953631;28;20030;-76
2021/01/20 14:14:53;;;;;;;8.80;4.22;;;-5.80;99.90;;;;;;4958121;28;20131;-76
2021/01/20 14:17:19;;;;;;;9.57;3.22;;;-5.80;99.90;;;;;;4954911;28;20487;-75
2021/01/20 14:19:45;;;;;;;6.07;2.53;;;-5.80;99.90;;;;;;4955015;28;20047;-76
2021/01/20 14:22:11;;;;;;;4.82;2.22;;;-5.80;99.90;;;;;;4955071;29;20023;-76
2021/01/20 14:24:37;;;;;;;4.90;2.15;;;-5.80;99.90;;;;;;4954705;28;20391;-76
2021/01/20 14:27:03;;;;;;;6.30;2.45;;;-5.80;99.90;;;;;;4954628;29;20062;-77
2021/01/20 14:29:29;;;;;;;4.97;2.03;;;-5.70;99.90;;;;;;4954057;29;20179;-73
2021/01/20 14:31:55;;;;;;;8.07;2.88;;;-5.70;99.90;;;;;;4954311;28;20058;-75
2021/01/20 14:34:24;;;;;;;3.67;2.17;;;-5.70;99.90;;;;;;4953248;28;20024;-74
2021/01/20 14:36:51;;;;;;;4.82;2.10;;;-5.80;99.90;;;;;;4954029;29;20019;-75
2021/01/20 14:39:18;;;;;;;3.58;2.40;;;-5.80;99.90;;;;;;4953934;28;20023;-74
2021/01/20 14:41:44;;;;;;;4.50;2.20;;;-5.80;99.90;;;;;;4954013;29;20031;-72
2021/01/20 14:44:09;;;;;;;4.68;2.20;;;-5.80;99.90;;;;;;4952737;29;20023;-75
2021/01/20 14:46:35;;;;;;;4.57;2.65;;;-5.80;99.90;;;;;;4962118;28;20027;-77
2021/01/20 14:49:01;;;;;;;8.25;5.60;;;-5.80;99.90;;;;;;4958186;28;20118;-76
2021/01/20 14:51:27;;;;;;;5.30;3.58;;;-5.90;99.90;;;;;;4957356;28;20034;-73
2021/01/20 14:53:52;;;;;;;8.50;3.10;;;-5.80;99.90;;;;;;4955955;28;20030;-73
2021/01/20 14:56:18;;;;;;;20.67;8.35;;;-5.80;99.90;;;;;;4953848;28;20364;-74
2021/01/20 14:58:44;;;;;;;4.88;3.00;;;-5.80;99.90;;;;;;4954634;28;20031;-75
2021/01/20 15:01:10;;;;;;;7.43;3.17;;;-5.80;99.90;;;;;;4944164;28;20019;-73
2021/01/20 15:03:35;;;;;;;15.45;9.02;;;-5.90;99.90;;;;;;4953313;29;20034;-73
2021/01/20 15:06:01;;;;;;;35.17;16.55;;;-5.90;99.90;;;;;;4953114;29;20497;-73
2021/01/20 15:08:27;;;;;;;82.93;35.33;;;-5.90;99.90;;;;;;4952824;28;20023;-73
2021/01/20 15:10:52;;;;;;;48.10;22.45;;;-5.80;99.90;;;;;;4951835;28;20034;-73
2021/01/20 15:13:18;;;;;;;7.43;3.78;;;-5.80;99.90;;;;;;4949014;28;20051;-74
2021/01/20 15:15:44;;;;;;;7.05;3.47;;;-5.80;99.90;;;;;;4946003;29;20051;-74
2021/01/20 15:18:10;;;;;;;3.95;2.90;;;-5.80;99.90;;;;;;4950323;29;20074;-73
2021/01/20 15:20:36;;;;;;;5.43;2.67;;;-5.70;99.90;;;;;;4950902;28;20027;-74
2021/01/20 15:23:02;;;;;;;5.82;2.55;;;-5.70;99.90;;;;;;4952868;29;20479;-74
2021/01/20 15:25:27;;;;;;;2.80;2.15;;;-5.70;99.90;;;;;;4952981;29;20035;-76
2021/01/20 15:27:53;;;;;;;3.25;2.13;;;-5.80;99.90;;;;;;4951653;29;20102;-76
2021/01/20 15:30:19;;;;;;;7.25;2.25;;;-5.80;99.90;;;;;;4953092;29;20077;-76
2021/01/20 15:32:45;;;;;;;3.05;2.00;;;-5.80;99.90;;;;;;4953210;29;20024;-76
2021/01/20 15:35:11;;;;;;;5.53;2.65;;;-5.80;99.90;;;;;;4952789;29;20389;-76
2021/01/20 15:37:37;;;;;;;5.30;2.33;;;-5.80;99.90;;;;;;4953282;29;20097;-76
2021/01/20 15:40:03;;;;;;;3.65;2.30;;;-5.80;99.90;;;;;;4965686;28;20530;-76
2021/01/20 15:42:29;;;;;;;4.63;2.38;;;-5.70;99.90;;;;;;4967168;28;20028;-76
2021/01/20 15:44:54;;;;;;;4.10;2.40;;;-5.80;99.90;;;;;;4953354;28;20058;-74
2021/01/20 15:47:20;;;;;;;3.17;2.13;;;-5.80;99.90;;;;;;4970771;28;20019;-75
2021/01/20 15:49:46;;;;;;;6.30;2.20;;;-5.80;99.90;;;;;;4967804;28;20031;-75
2021/01/20 15:52:12;;;;;;;5.68;1.88;;;-5.80;99.90;;;;;;4953325;29;20028;-75
2021/01/20 15:54:38;;;;;;;3.50;1.90;;;-5.90;99.90;;;;;;4952627;28;20534;-78
2021/01/20 15:57:05;;;;;;;5.10;1.92;;;-5.90;99.90;;;;;;4958894;28;20115;-83
2021/01/20 15:59:32;;;;;;;3.80;2.00;;;-6.00;99.90;;;;;;4952878;28;20028;-82
2021/01/20 16:01:58;;;;;;;5.82;1.95;;;-6.00;99.90;;;;;;4958958;28;20424;-84
2021/01/20 16:04:28;;;;;;;3.25;2.08;;;-5.90;99.90;;;;;;4957126;28;20034;-82
2021/01/20 16:06:54;;;;;;;2.90;2.13;;;-5.90;99.90;;;;;;4953728;28;20020;-81
2021/01/20 16:09:22;;;;;;;4.15;1.98;;;-6.00;99.90;;;;;;4953307;29;20024;-84
2021/01/20 16:11:49;;;;;;;5.70;1.98;;;-6.00;99.90;;;;;;4959042;28;20447;-74
2021/01/20 16:14:16;;;;;;;2.28;1.95;;;-6.00;99.90;;;;;;4952668;29;20436;-73
2021/01/20 16:16:42;;;;;;;6.25;2.30;;;-6.00;99.90;;;;;;4953091;28;20034;-73
2021/01/20 16:19:08;;;;;;;8.85;2.38;;;-6.00;99.90;;;;;;4952908;28;20019;-73
2021/01/20 16:21:34;;;;;;;13.48;3.45;;;-6.00;99.90;;;;;;4955540;29;20141;-73
2021/01/20 16:24:00;;;;;;;3.53;2.30;;;-6.00;99.90;;;;;;4957184;29;20024;-73
2021/01/20 16:26:27;;;;;;;4.45;2.38;;;-6.00;99.90;;;;;;4956850;29;20074;-73
2021/01/20 16:28:53;;;;;;;3.40;2.00;;;-5.90;99.90;;;;;;4956693;28;20102;-72
2021/01/20 16:31:19;;;;;;;2.33;2.03;;;-5.90;99.90;;;;;;4957023;29;20110;-72
2021/01/20 16:33:44;;;;;;;3.30;1.98;;;-5.80;99.90;;;;;;4956589;28;20027;-72
2021/01/20 16:36:10;;;;;;;4.82;2.28;;;-5.70;99.90;;;;;;4956656;29;20074;-73
2021/01/20 16:38:37;;;;;;;3.72;2.15;;;-5.70;99.90;;;;;;4958718;28;20039;-73
2021/01/20 16:41:03;;;;;;;3.45;2.13;;;-5.80;99.90;;;;;;4966723;28;20038;-73
2021/01/20 16:43:29;;;;;;;5.43;2.10;;;-5.80;99.90;;;;;;4956687;28;20028;-72
2021/01/20 16:45:54;;;;;;;4.47;2.38;;;-5.90;99.90;;;;;;4975940;28;20035;-75
2021/01/20 16:48:20;;;;;;;4.13;2.40;;;-6.00;99.90;;;;;;4976311;28;20471;-73
2021/01/20 16:50:46;;;;;;;5.93;2.33;;;-6.10;99.90;;;;;;4975708;28;20023;-74
2021/01/20 16:53:13;;;;;;;4.30;2.03;;;-6.00;99.90;;;;;;4975456;28;20503;-74
2021/01/20 16:55:39;;;;;;;3.72;2.10;;;-6.00;99.90;;;;;;4955770;29;20082;-75
2021/01/20 16:58:05;;;;;;;4.43;2.80;;;-6.00;99.90;;;;;;4954880;29;20056;-74
2021/01/20 17:00:30;;;;;;;9.57;2.70;;;-6.10;99.90;;;;;;4956696;28;20031;-74
2021/01/20 17:02:56;;;;;;;4.78;2.50;;;-6.10;99.90;;;;;;4962321;28;20019;-75